sensor_id;sensor_type;location;lat;lon;timestamp;pressure;altitude;pressure_sealevel;temperature;humidity
21638;BME280;10980;49.596;6.142;2023-03-17T00:01:41;97800.59;;;8.22;100.00
21638;BME280;10980;49.596;6.142;2023-03-17T00:05:22;97814.91;;;8.29;100.00
21638;BME280;10980;49.596;6.142;2023-03-17T00:09:03;97812.56;;;8.26;100.00
21638;BME280;10980;49.596;6.142;2023-03-17T00:12:25;97801.72;;;8.20;100.00
21638;BME280;10980;49.596;6.142;2023-03-17T00:15:59;97822.88;;;8.10;100.00
21638;BME280;10980;49.596;6.142;2023-03-17T00:19:37;97823.84;;;7.90;100.00
21638;BME280;10980;49.596;6.142;2023-03-17T00:23:16;97823.41;;;7.85;100.00
21638;BME280;10980;49.596;6.142;2023-03-17T00:26:38;97834.09;;;7.73;100.00
21638;BME280;10980;49.596;6.142;2023-03-17T00:30:01;97832.31;;;7.74;100.00
21638;BME280;10980;49.596;6.142;2023-03-17T00:33:28;97814.75;;;7.83;100.00
21638;BME280;10980;49.596;6.142;2023-03-17T00:36:55;97800.84;;;7.90;100.00
21638;BME280;10980;49.596;6.142;2023-03-17T00:40:20;97783.41;;;7.88;100.00
21638;BME280;10980;49.596;6.142;2023-03-17T00:43:43;97775.50;;;7.78;100.00
21638;BME280;10980;49.596;6.142;2023-03-17T00:47:05;97783.13;;;7.71;100.00
21638;BME280;10980;49.596;6.142;2023-03-17T00:50:29;97795.78;;;7.58;100.00
21638;BME280;10980;49.596;6.142;2023-03-17T00:53:51;97801.34;;;7.45;100.00
21638;BME280;10980;49.596;6.142;2023-03-17T00:57:21;97792.50;;;7.26;100.00
21638;BME280;10980;49.596;6.142;2023-03-17T01:00:46;97782.63;;;7.28;100.00
21638;BME280;10980;49.596;6.142;2023-03-17T01:04:11;97794.03;;;7.28;100.00
21638;BME280;10980;49.596;6.142;2023-03-17T01:07:32;97795.97;;;7.26;100.00
21638;BME280;10980;49.596;6.142;2023-03-17T01:10:56;97784.44;;;7.27;100.00
21638;BME280;10980;49.596;6.142;2023-03-17T01:14:18;97769.66;;;7.25;100.00
21638;BME280;10980;49.596;6.142;2023-03-17T01:17:41;97763.69;;;7.23;100.00
21638;BME280;10980;49.596;6.142;2023-03-17T01:21:20;97768.88;;;7.34;100.00
21638;BME280;10980;49.596;6.142;2023-03-17T01:24:44;97755.78;;;7.32;100.00
21638;BME280;10980;49.596;6.142;2023-03-17T01:28:19;97754.75;;;7.14;100.00
21638;BME280;10980;49.596;6.142;2023-03-17T01:31:43;97740.81;;;7.02;100.00
21638;BME280;10980;49.596;6.142;2023-03-17T01:35:12;97741.06;;;6.99;100.00
21638;BME280;10980;49.596;6.142;2023-03-17T01:38:37;97748.53;;;6.84;100.00
21638;BME280;10980;49.596;6.142;2023-03-17T01:42:00;97747.16;;;6.60;100.00
21638;BME280;10980;49.596;6.142;2023-03-17T01:49:51;97749.56;;;6.21;100.00
21638;BME280;10980;49.596;6.142;2023-03-17T01:53:14;97760.66;;;6.15;100.00
21638;BME280;10980;49.596;6.142;2023-03-17T01:56:49;97755.09;;;6.18;100.00
21638;BME280;10980;49.596;6.142;2023-03-17T02:00:20;97738.97;;;6.11;100.00
21638;BME280;10980;49.596;6.142;2023-03-17T02:03:47;97748.31;;;5.83;100.00
21638;BME280;10980;49.596;6.142;2023-03-17T02:07:15;97745.69;;;5.72;100.00
21638;BME280;10980;49.596;6.142;2023-03-17T02:10:40;97746.56;;;5.61;100.00
21638;BME280;10980;49.596;6.142;2023-03-17T02:14:15;97732.75;;;5.37;100.00
21638;BME280;10980;49.596;6.142;2023-03-17T02:17:37;97724.28;;;5.22;100.00
21638;BME280;10980;49.596;6.142;2023-03-17T02:25:02;97709.75;;;4.85;100.00
21638;BME280;10980;49.596;6.142;2023-03-17T02:28:29;97722.31;;;4.70;100.00
21638;BME280;10980;49.596;6.142;2023-03-17T02:31:52;97718.84;;;4.58;100.00
21638;BME280;10980;49.596;6.142;2023-03-17T02:35:16;97709.97;;;4.59;100.00
21638;BME280;10980;49.596;6.142;2023-03-17T02:38:39;97700.78;;;4.65;100.00
21638;BME280;10980;49.596;6.142;2023-03-17T02:42:03;97710.00;;;4.70;100.00
21638;BME280;10980;49.596;6.142;2023-03-17T02:45:28;97712.50;;;4.49;100.00
21638;BME280;10980;49.596;6.142;2023-03-17T02:48:50;97722.44;;;4.35;100.00
21638;BME280;10980;49.596;6.142;2023-03-17T02:52:12;97707.44;;;4.13;100.00
21638;BME280;10980;49.596;6.142;2023-03-17T02:55:36;97716.72;;;3.95;100.00
21638;BME280;10980;49.596;6.142;2023-03-17T02:58:57;97707.63;;;3.87;100.00
21638;BME280;10980;49.596;6.142;2023-03-17T03:02:27;97698.91;;;3.87;100.00
21638;BME280;10980;49.596;6.142;2023-03-17T03:05:49;97700.78;;;3.85;100.00
21638;BME280;10980;49.596;6.142;2023-03-17T03:09:13;97699.28;;;3.94;100.00
21638;BME280;10980;49.596;6.142;2023-03-17T03:12:41;97704.25;;;3.85;100.00
21638;BME280;10980;49.596;6.142;2023-03-17T03:16:03;97710.47;;;3.73;100.00
21638;BME280;10980;49.596;6.142;2023-03-17T03:19:25;97708.16;;;3.69;100.00
21638;BME280;10980;49.596;6.142;2023-03-17T03:22:47;97704.28;;;3.50;100.00
21638;BME280;10980;49.596;6.142;2023-03-17T03:26:10;97711.09;;;3.53;100.00
21638;BME280;10980;49.596;6.142;2023-03-17T03:29:33;97708.81;;;3.48;100.00
21638;BME280;10980;49.596;6.142;2023-03-17T03:32:54;97707.75;;;3.51;100.00
21638;BME280;10980;49.596;6.142;2023-03-17T03:36:19;97724.34;;;3.51;100.00
21638;BME280;10980;49.596;6.142;2023-03-17T03:39:41;97721.06;;;3.61;100.00
21638;BME280;10980;49.596;6.142;2023-03-17T03:43:04;97719.38;;;3.59;100.00
21638;BME280;10980;49.596;6.142;2023-03-17T03:46:42;97724.84;;;3.56;100.00
21638;BME280;10980;49.596;6.142;2023-03-17T03:50:05;97735.09;;;3.48;100.00
21638;BME280;10980;49.596;6.142;2023-03-17T03:53:28;97731.00;;;3.44;100.00
21638;BME280;10980;49.596;6.142;2023-03-17T03:56:50;97725.66;;;3.46;100.00
21638;BME280;10980;49.596;6.142;2023-03-17T04:00:13;97727.19;;;3.48;100.00
21638;BME280;10980;49.596;6.142;2023-03-17T04:03:38;97730.09;;;3.56;100.00
21638;BME280;10980;49.596;6.142;2023-03-17T04:07:00;97737.94;;;3.45;100.00
21638;BME280;10980;49.596;6.142;2023-03-17T04:10:29;97729.09;;;3.46;100.00
21638;BME280;10980;49.596;6.142;2023-03-17T04:13:51;97730.78;;;3.47;100.00
21638;BME280;10980;49.596;6.142;2023-03-17T04:17:13;97741.28;;;3.47;100.00
21638;BME280;10980;49.596;6.142;2023-03-17T04:20:38;97739.38;;;3.49;100.00
21638;BME280;10980;49.596;6.142;2023-03-17T04:24:03;97738.91;;;3.44;100.00
21638;BME280;10980;49.596;6.142;2023-03-17T04:27:25;97733.66;;;3.55;100.00
21638;BME280;10980;49.596;6.142;2023-03-17T04:30:48;97741.38;;;3.70;100.00
21638;BME280;10980;49.596;6.142;2023-03-17T04:34:15;97748.25;;;3.83;100.00
21638;BME280;10980;49.596;6.142;2023-03-17T04:37:37;97751.59;;;3.85;100.00
21638;BME280;10980;49.596;6.142;2023-03-17T04:40:59;97747.94;;;3.99;100.00
21638;BME280;10980;49.596;6.142;2023-03-17T04:44:21;97744.16;;;4.03;100.00
21638;BME280;10980;49.596;6.142;2023-03-17T04:47:43;97737.81;;;4.06;100.00
21638;BME280;10980;49.596;6.142;2023-03-17T04:51:06;97734.94;;;4.09;100.00
21638;BME280;10980;49.596;6.142;2023-03-17T04:54:35;97723.50;;;4.21;100.00
21638;BME280;10980;49.596;6.142;2023-03-17T04:57:57;97727.78;;;4.22;100.00
21638;BME280;10980;49.596;6.142;2023-03-17T05:01:20;97733.78;;;4.35;100.00
21638;BME280;10980;49.596;6.142;2023-03-17T05:04:48;97734.38;;;4.39;100.00
21638;BME280;10980;49.596;6.142;2023-03-17T05:08:12;97738.34;;;4.44;100.00
21638;BME280;10980;49.596;6.142;2023-03-17T05:11:34;97744.94;;;4.50;100.00
21638;BME280;10980;49.596;6.142;2023-03-17T05:14:56;97732.97;;;4.57;100.00
21638;BME280;10980;49.596;6.142;2023-03-17T05:18:22;97723.88;;;4.61;100.00
21638;BME280;10980;49.596;6.142;2023-03-17T05:21:44;97723.28;;;4.69;100.00
21638;BME280;10980;49.596;6.142;2023-03-17T05:25:08;97724.25;;;4.79;100.00
21638;BME280;10980;49.596;6.142;2023-03-17T05:28:31;97730.47;;;4.78;100.00
21638;BME280;10980;49.596;6.142;2023-03-17T05:31:54;97733.19;;;4.88;100.00
21638;BME280;10980;49.596;6.142;2023-03-17T05:35:16;97730.31;;;4.91;100.00
21638;BME280;10980;49.596;6.142;2023-03-17T05:38:39;97723.34;;;5.12;100.00
21638;BME280;10980;49.596;6.142;2023-03-17T05:42:02;97719.75;;;5.24;100.00
21638;BME280;10980;49.596;6.142;2023-03-17T05:45:29;97709.31;;;5.23;100.00
21638;BME280;10980;49.596;6.142;2023-03-17T05:48:52;97723.41;;;5.33;100.00
21638;BME280;10980;49.596;6.142;2023-03-17T05:52:14;97721.16;;;5.28;100.00
21638;BME280;10980;49.596;6.142;2023-03-17T05:55:46;97727.59;;;5.35;100.00
21638;BME280;10980;49.596;6.142;2023-03-17T05:59:14;97721.13;;;5.39;100.00
21638;BME280;10980;49.596;6.142;2023-03-17T06:02:37;97716.28;;;5.56;100.00
21638;BME280;10980;49.596;6.142;2023-03-17T06:06:00;97715.28;;;5.68;100.00
21638;BME280;10980;49.596;6.142;2023-03-17T06:09:22;97718.88;;;5.99;100.00
21638;BME280;10980;49.596;6.142;2023-03-17T06:12:48;97728.16;;;6.14;100.00
21638;BME280;10980;49.596;6.142;2023-03-17T06:16:09;97728.00;;;6.16;100.00
21638;BME280;10980;49.596;6.142;2023-03-17T06:19:32;97713.44;;;6.21;100.00
21638;BME280;10980;49.596;6.142;2023-03-17T06:22:53;97718.38;;;6.26;100.00
21638;BME280;10980;49.596;6.142;2023-03-17T06:26:26;97717.91;;;6.42;100.00
21638;BME280;10980;49.596;6.142;2023-03-17T06:29:48;97717.91;;;6.82;100.00
21638;BME280;10980;49.596;6.142;2023-03-17T06:33:10;97721.63;;;7.00;100.00
21638;BME280;10980;49.596;6.142;2023-03-17T06:36:32;97725.84;;;7.22;100.00
21638;BME280;10980;49.596;6.142;2023-03-17T06:39:54;97729.50;;;7.50;100.00
21638;BME280;10980;49.596;6.142;2023-03-17T06:43:17;97734.97;;;7.77;100.00
21638;BME280;10980;49.596;6.142;2023-03-17T06:46:40;97729.50;;;8.08;100.00
21638;BME280;10980;49.596;6.142;2023-03-17T06:50:04;97726.16;;;8.25;100.00
21638;BME280;10980;49.596;6.142;2023-03-17T06:53:26;97731.13;;;8.48;100.00
21638;BME280;10980;49.596;6.142;2023-03-17T06:56:48;97727.84;;;8.83;100.00
21638;BME280;10980;49.596;6.142;2023-03-17T07:00:11;97742.09;;;9.09;100.00
21638;BME280;10980;49.596;6.142;2023-03-17T07:03:40;97747.59;;;9.25;100.00
21638;BME280;10980;49.596;6.142;2023-03-17T07:07:04;97752.31;;;9.49;100.00
21638;BME280;10980;49.596;6.142;2023-03-17T07:10:41;97749.25;;;9.54;100.00
21638;BME280;10980;49.596;6.142;2023-03-17T07:14:09;97749.56;;;9.69;100.00
21638;BME280;10980;49.596;6.142;2023-03-17T07:17:34;97759.03;;;9.89;100.00
21638;BME280;10980;49.596;6.142;2023-03-17T07:21:00;97749.47;;;9.96;100.00
21638;BME280;10980;49.596;6.142;2023-03-17T07:24:24;97743.09;;;10.07;100.00
21638;BME280;10980;49.596;6.142;2023-03-17T07:27:46;97742.72;;;10.20;100.00
21638;BME280;10980;49.596;6.142;2023-03-17T07:31:17;97751.66;;;10.36;100.00
21638;BME280;10980;49.596;6.142;2023-03-17T07:34:40;97764.13;;;10.36;100.00
21638;BME280;10980;49.596;6.142;2023-03-17T07:38:04;97757.50;;;10.40;100.00
21638;BME280;10980;49.596;6.142;2023-03-17T07:41:39;97756.81;;;10.20;100.00
21638;BME280;10980;49.596;6.142;2023-03-17T07:45:05;97752.22;;;10.22;100.00
21638;BME280;10980;49.596;6.142;2023-03-17T07:48:34;97740.59;;;10.05;100.00
21638;BME280;10980;49.596;6.142;2023-03-17T07:52:04;97733.91;;;10.37;100.00
21638;BME280;10980;49.596;6.142;2023-03-17T07:55:27;97727.34;;;10.49;100.00
21638;BME280;10980;49.596;6.142;2023-03-17T07:58:51;97727.69;;;10.54;100.00
21638;BME280;10980;49.596;6.142;2023-03-17T08:02:17;97734.13;;;10.69;100.00
21638;BME280;10980;49.596;6.142;2023-03-17T08:05:41;97734.59;;;10.99;100.00
21638;BME280;10980;49.596;6.142;2023-03-17T08:09:03;97733.38;;;11.19;100.00
21638;BME280;10980;49.596;6.142;2023-03-17T08:12:27;97742.41;;;11.34;100.00
21638;BME280;10980;49.596;6.142;2023-03-17T08:15:51;97742.00;;;11.63;100.00
21638;BME280;10980;49.596;6.142;2023-03-17T08:19:13;97744.56;;;11.81;100.00
21638;BME280;10980;49.596;6.142;2023-03-17T08:22:35;97750.94;;;12.13;100.00
21638;BME280;10980;49.596;6.142;2023-03-17T08:26:01;97744.28;;;12.25;100.00
21638;BME280;10980;49.596;6.142;2023-03-17T08:29:23;97739.09;;;12.40;100.00
21638;BME280;10980;49.596;6.142;2023-03-17T08:32:47;97738.56;;;12.61;100.00
21638;BME280;10980;49.596;6.142;2023-03-17T08:36:12;97741.50;;;12.98;100.00
21638;BME280;10980;49.596;6.142;2023-03-17T08:39:35;97742.53;;;13.45;96.20
21638;BME280;10980;49.596;6.142;2023-03-17T08:42:58;97748.59;;;13.61;92.66
21638;BME280;10980;49.596;6.142;2023-03-17T08:46:27;97741.50;;;13.77;89.91
21638;BME280;10980;49.596;6.142;2023-03-17T08:49:49;97739.09;;;13.90;89.50
21638;BME280;10980;49.596;6.142;2023-03-17T08:53:11;97738.91;;;14.60;86.87
21638;BME280;10980;49.596;6.142;2023-03-17T08:56:38;97726.56;;;14.88;82.48
21638;BME280;10980;49.596;6.142;2023-03-17T09:00:04;97727.28;;;15.12;78.12
21638;BME280;10980;49.596;6.142;2023-03-17T09:03:32;97727.81;;;14.63;79.81
21638;BME280;10980;49.596;6.142;2023-03-17T09:06:54;97714.84;;;14.89;80.26
21638;BME280;10980;49.596;6.142;2023-03-17T09:10:26;97711.34;;;14.89;78.57
21638;BME280;10980;49.596;6.142;2023-03-17T09:13:51;97706.28;;;15.60;77.86
21638;BME280;10980;49.596;6.142;2023-03-17T09:17:13;97706.00;;;15.55;73.73
21638;BME280;10980;49.596;6.142;2023-03-17T09:20:38;97703.94;;;15.57;73.45
21638;BME280;10980;49.596;6.142;2023-03-17T09:23:59;97716.09;;;16.10;70.41
21638;BME280;10980;49.596;6.142;2023-03-17T09:27:23;97721.25;;;16.54;67.65
21638;BME280;10980;49.596;6.142;2023-03-17T09:30:46;97724.91;;;16.68;64.61
21638;BME280;10980;49.596;6.142;2023-03-17T09:34:09;97720.09;;;17.26;63.21
21638;BME280;10980;49.596;6.142;2023-03-17T09:37:32;97712.63;;;17.69;61.15
21638;BME280;10980;49.596;6.142;2023-03-17T09:41:34;97699.03;;;17.91;58.85
21638;BME280;10980;49.596;6.142;2023-03-17T09:45:37;97700.25;;;17.81;59.26
21638;BME280;10980;49.596;6.142;2023-03-17T09:49:10;97707.31;;;17.89;59.57
21638;BME280;10980;49.596;6.142;2023-03-17T09:52:35;97712.97;;;18.21;58.25
21638;BME280;10980;49.596;6.142;2023-03-17T09:55:57;97712.28;;;17.85;58.69
21638;BME280;10980;49.596;6.142;2023-03-17T09:59:34;97704.63;;;17.35;61.27
21638;BME280;10980;49.596;6.142;2023-03-17T10:02:58;97700.81;;;17.22;60.89
21638;BME280;10980;49.596;6.142;2023-03-17T10:06:35;97700.25;;;16.92;61.58
21638;BME280;10980;49.596;6.142;2023-03-17T10:17:41;97709.03;;;17.55;61.40
21638;BME280;10980;49.596;6.142;2023-03-17T10:21:09;97696.53;;;17.28;61.56
21638;BME280;10980;49.596;6.142;2023-03-17T10:24:38;97690.31;;;16.86;62.69
21638;BME280;10980;49.596;6.142;2023-03-17T10:28:20;97679.84;;;16.98;61.29
21638;BME280;10980;49.596;6.142;2023-03-17T10:31:44;97675.56;;;17.10;62.15
21638;BME280;10980;49.596;6.142;2023-03-17T10:35:06;97682.28;;;17.41;61.83
21638;BME280;10980;49.596;6.142;2023-03-17T10:38:29;97671.72;;;17.87;59.44
21638;BME280;10980;49.596;6.142;2023-03-17T10:42:11;97679.06;;;17.58;59.77
21638;BME280;10980;49.596;6.142;2023-03-17T10:45:38;97687.91;;;18.20;57.13
21638;BME280;10980;49.596;6.142;2023-03-17T10:49:15;97690.78;;;17.92;57.96
21638;BME280;10980;49.596;6.142;2023-03-17T10:52:38;97668.28;;;17.45;58.92
21638;BME280;10980;49.596;6.142;2023-03-17T10:56:17;97656.72;;;17.04;63.22
21638;BME280;10980;49.596;6.142;2023-03-17T10:59:52;97654.25;;;16.67;64.84
21638;BME280;10980;49.596;6.142;2023-03-17T11:03:38;97653.78;;;16.64;66.37
21638;BME280;10980;49.596;6.142;2023-03-17T11:07:17;97660.91;;;16.78;66.75
21638;BME280;10980;49.596;6.142;2023-03-17T11:10:40;97672.28;;;17.15;65.34
21638;BME280;10980;49.596;6.142;2023-03-17T11:14:10;97661.03;;;17.46;64.69
21638;BME280;10980;49.596;6.142;2023-03-17T11:17:57;97660.53;;;17.83;62.04
21638;BME280;10980;49.596;6.142;2023-03-17T11:21:30;97648.94;;;17.76;62.81
21638;BME280;10980;49.596;6.142;2023-03-17T11:25:17;97651.44;;;17.78;60.39
21638;BME280;10980;49.596;6.142;2023-03-17T11:28:49;97649.16;;;17.75;60.22
21638;BME280;10980;49.596;6.142;2023-03-17T11:32:40;97653.13;;;18.25;58.67
21638;BME280;10980;49.596;6.142;2023-03-17T11:36:39;97643.63;;;18.16;57.27
21638;BME280;10980;49.596;6.142;2023-03-17T11:52:12;97646.91;;;18.51;51.83
21638;BME280;10980;49.596;6.142;2023-03-17T11:55:44;97647.75;;;18.65;51.66
21638;BME280;10980;49.596;6.142;2023-03-17T11:59:27;97642.75;;;18.62;51.56
21638;BME280;10980;49.596;6.142;2023-03-17T12:06:53;97640.59;;;19.03;50.31
21638;BME280;10980;49.596;6.142;2023-03-17T12:10:35;97639.03;;;18.63;51.10
21638;BME280;10980;49.596;6.142;2023-03-17T12:14:19;97634.13;;;19.18;50.47
21638;BME280;10980;49.596;6.142;2023-03-17T12:17:56;97628.50;;;19.26;50.62
21638;BME280;10980;49.596;6.142;2023-03-17T12:25:23;97630.72;;;18.84;50.47
21638;BME280;10980;49.596;6.142;2023-03-17T12:29:08;97625.56;;;19.27;50.21
21638;BME280;10980;49.596;6.142;2023-03-17T12:32:43;97625.22;;;19.62;48.38
21638;BME280;10980;49.596;6.142;2023-03-17T12:36:13;97615.06;;;19.13;48.27
21638;BME280;10980;49.596;6.142;2023-03-17T12:39:56;97610.13;;;19.10;49.17
21638;BME280;10980;49.596;6.142;2023-03-17T12:43:45;97615.72;;;19.01;48.51
21638;BME280;10980;49.596;6.142;2023-03-17T12:47:34;97610.44;;;18.75;49.47
21638;BME280;10980;49.596;6.142;2023-03-17T12:54:54;97607.19;;;19.94;46.15
21638;BME280;10980;49.596;6.142;2023-03-17T12:58:38;97615.00;;;19.71;45.48
21638;BME280;10980;49.596;6.142;2023-03-17T13:05:52;97604.47;;;19.94;44.75
21638;BME280;10980;49.596;6.142;2023-03-17T13:24:40;97595.00;;;19.02;44.67
21638;BME280;10980;49.596;6.142;2023-03-17T13:31:35;97595.53;;;19.62;43.52
21638;BME280;10980;49.596;6.142;2023-03-17T13:35:17;97590.75;;;19.95;43.07
21638;BME280;10980;49.596;6.142;2023-03-17T13:39:10;97588.38;;;19.81;44.12
21638;BME280;10980;49.596;6.142;2023-03-17T13:50:31;97606.03;;;18.87;47.29
21638;BME280;10980;49.596;6.142;2023-03-17T13:54:05;97595.94;;;18.76;49.74
21638;BME280;10980;49.596;6.142;2023-03-17T13:57:37;97592.84;;;18.66;50.87
21638;BME280;10980;49.596;6.142;2023-03-17T14:01:04;97591.00;;;18.40;52.05
21638;BME280;10980;49.596;6.142;2023-03-17T14:04:45;97590.75;;;18.61;52.04
21638;BME280;10980;49.596;6.142;2023-03-17T14:08:20;97596.72;;;18.83;51.43
21638;BME280;10980;49.596;6.142;2023-03-17T14:11:46;97599.25;;;18.78;50.88
21638;BME280;10980;49.596;6.142;2023-03-17T14:15:45;97595.94;;;18.56;53.28
21638;BME280;10980;49.596;6.142;2023-03-17T14:19:24;97588.25;;;18.80;50.54
21638;BME280;10980;49.596;6.142;2023-03-17T14:23:02;97587.84;;;18.69;47.17
21638;BME280;10980;49.596;6.142;2023-03-17T14:26:28;97591.38;;;18.76;46.88
21638;BME280;10980;49.596;6.142;2023-03-17T14:29:51;97575.88;;;18.65;46.39
21638;BME280;10980;49.596;6.142;2023-03-17T14:33:35;97573.97;;;18.72;46.80
21638;BME280;10980;49.596;6.142;2023-03-17T14:37:03;97564.78;;;18.87;46.89
21638;BME280;10980;49.596;6.142;2023-03-17T14:40:29;97555.56;;;19.14;47.29
21638;BME280;10980;49.596;6.142;2023-03-17T14:43:58;97572.47;;;19.34;46.17
21638;BME280;10980;49.596;6.142;2023-03-17T14:47:24;97563.66;;;19.52;47.68
21638;BME280;10980;49.596;6.142;2023-03-17T14:50:56;97556.97;;;19.61;45.42
21638;BME280;10980;49.596;6.142;2023-03-17T14:54:34;97556.69;;;19.31;46.24
21638;BME280;10980;49.596;6.142;2023-03-17T14:57:56;97558.66;;;19.56;46.28
21638;BME280;10980;49.596;6.142;2023-03-17T15:01:39;97553.38;;;19.36;46.16
21638;BME280;10980;49.596;6.142;2023-03-17T15:08:58;97542.06;;;18.63;48.16
21638;BME280;10980;49.596;6.142;2023-03-17T15:12:25;97560.16;;;18.29;50.21
21638;BME280;10980;49.596;6.142;2023-03-17T15:15:49;97560.81;;;18.11;51.17
21638;BME280;10980;49.596;6.142;2023-03-17T15:19:38;97566.38;;;18.36;51.94
21638;BME280;10980;49.596;6.142;2023-03-17T15:23:18;97560.53;;;18.53;50.94
21638;BME280;10980;49.596;6.142;2023-03-17T15:26:41;97565.06;;;18.59;51.56
21638;BME280;10980;49.596;6.142;2023-03-17T15:30:03;97558.94;;;18.25;52.77
21638;BME280;10980;49.596;6.142;2023-03-17T15:33:36;97555.41;;;18.11;54.54
21638;BME280;10980;49.596;6.142;2023-03-17T15:36:59;97561.66;;;18.05;54.83
21638;BME280;10980;49.596;6.142;2023-03-17T15:40:21;97554.59;;;17.98;55.70
21638;BME280;10980;49.596;6.142;2023-03-17T15:43:43;97564.94;;;18.14;55.96
21638;BME280;10980;49.596;6.142;2023-03-17T15:47:05;97556.63;;;18.35;56.87
21638;BME280;10980;49.596;6.142;2023-03-17T15:50:30;97561.81;;;18.37;55.71
21638;BME280;10980;49.596;6.142;2023-03-17T15:53:54;97546.75;;;18.16;56.90
21638;BME280;10980;49.596;6.142;2023-03-17T15:57:16;97548.22;;;17.85;57.88
21638;BME280;10980;49.596;6.142;2023-03-17T16:00:38;97551.94;;;17.71;59.81
21638;BME280;10980;49.596;6.142;2023-03-17T16:04:00;97551.53;;;17.74;59.80
21638;BME280;10980;49.596;6.142;2023-03-17T16:07:23;97558.91;;;17.46;61.67
21638;BME280;10980;49.596;6.142;2023-03-17T16:10:46;97556.56;;;17.16;63.91
21638;BME280;10980;49.596;6.142;2023-03-17T16:14:09;97555.28;;;17.06;65.68
21638;BME280;10980;49.596;6.142;2023-03-17T16:17:31;97554.03;;;17.08;67.13
21638;BME280;10980;49.596;6.142;2023-03-17T16:20:53;97557.28;;;16.84;68.10
21638;BME280;10980;49.596;6.142;2023-03-17T16:24:22;97548.66;;;16.60;71.78
21638;BME280;10980;49.596;6.142;2023-03-17T16:27:46;97550.66;;;16.45;72.31
21638;BME280;10980;49.596;6.142;2023-03-17T16:31:25;97555.09;;;16.31;73.50
21638;BME280;10980;49.596;6.142;2023-03-17T16:34:50;97549.09;;;16.23;74.77
21638;BME280;10980;49.596;6.142;2023-03-17T16:38:15;97554.38;;;16.16;75.50
21638;BME280;10980;49.596;6.142;2023-03-17T16:41:38;97559.72;;;16.09;75.86
21638;BME280;10980;49.596;6.142;2023-03-17T16:45:00;97567.78;;;16.09;76.65
21638;BME280;10980;49.596;6.142;2023-03-17T16:48:22;97583.22;;;16.07;77.43
21638;BME280;10980;49.596;6.142;2023-03-17T16:51:45;97584.00;;;16.01;78.16
21638;BME280;10980;49.596;6.142;2023-03-17T16:55:10;97583.88;;;15.88;78.99
21638;BME280;10980;49.596;6.142;2023-03-17T16:58:34;97587.53;;;15.80;80.35
21638;BME280;10980;49.596;6.142;2023-03-17T17:01:57;97580.59;;;15.65;81.72
21638;BME280;10980;49.596;6.142;2023-03-17T17:05:27;97584.16;;;15.50;84.38
21638;BME280;10980;49.596;6.142;2023-03-17T17:08:51;97586.88;;;15.36;86.09
21638;BME280;10980;49.596;6.142;2023-03-17T17:12:14;97594.56;;;15.24;87.95
21638;BME280;10980;49.596;6.142;2023-03-17T17:15:36;97597.25;;;15.24;89.51
21638;BME280;10980;49.596;6.142;2023-03-17T17:19:00;97601.25;;;15.13;91.55
21638;BME280;10980;49.596;6.142;2023-03-17T17:22:23;97600.53;;;15.05;93.70
21638;BME280;10980;49.596;6.142;2023-03-17T17:25:46;97604.34;;;14.96;94.54
21638;BME280;10980;49.596;6.142;2023-03-17T17:29:08;97613.75;;;14.91;95.48
21638;BME280;10980;49.596;6.142;2023-03-17T17:32:31;97613.84;;;14.83;96.30
21638;BME280;10980;49.596;6.142;2023-03-17T17:35:53;97628.91;;;14.70;98.82
21638;BME280;10980;49.596;6.142;2023-03-17T17:39:15;97629.66;;;14.64;100.00
21638;BME280;10980;49.596;6.142;2023-03-17T17:42:38;97632.88;;;14.59;100.00
21638;BME280;10980;49.596;6.142;2023-03-17T17:46:01;97628.38;;;14.45;100.00
21638;BME280;10980;49.596;6.142;2023-03-17T17:49:24;97630.16;;;14.29;100.00
21638;BME280;10980;49.596;6.142;2023-03-17T17:52:47;97641.19;;;14.26;100.00
21638;BME280;10980;49.596;6.142;2023-03-17T17:56:17;97645.16;;;14.16;100.00
21638;BME280;10980;49.596;6.142;2023-03-17T17:59:39;97640.44;;;14.03;100.00
21638;BME280;10980;49.596;6.142;2023-03-17T18:03:01;97640.13;;;13.98;100.00
21638;BME280;10980;49.596;6.142;2023-03-17T18:06:23;97652.31;;;14.00;100.00
21638;BME280;10980;49.596;6.142;2023-03-17T18:09:45;97654.56;;;13.89;100.00
21638;BME280;10980;49.596;6.142;2023-03-17T18:13:07;97654.94;;;13.86;100.00
21638;BME280;10980;49.596;6.142;2023-03-17T18:16:31;97646.28;;;13.84;100.00
21638;BME280;10980;49.596;6.142;2023-03-17T18:19:53;97640.44;;;13.80;100.00
21638;BME280;10980;49.596;6.142;2023-03-17T18:23:15;97646.38;;;13.67;100.00
21638;BME280;10980;49.596;6.142;2023-03-17T18:26:37;97644.38;;;13.69;100.00
21638;BME280;10980;49.596;6.142;2023-03-17T18:30:00;97644.03;;;13.72;100.00
21638;BME280;10980;49.596;6.142;2023-03-17T18:33:21;97643.19;;;13.72;100.00
21638;BME280;10980;49.596;6.142;2023-03-17T18:36:45;97640.00;;;13.68;100.00
21638;BME280;10980;49.596;6.142;2023-03-17T18:40:09;97634.16;;;13.73;100.00
21638;BME280;10980;49.596;6.142;2023-03-17T18:43:39;97639.97;;;13.77;100.00
21638;BME280;10980;49.596;6.142;2023-03-17T18:47:05;97638.03;;;13.70;100.00
21638;BME280;10980;49.596;6.142;2023-03-17T18:50:28;97643.66;;;13.76;100.00
21638;BME280;10980;49.596;6.142;2023-03-17T18:53:50;97649.09;;;13.82;100.00
21638;BME280;10980;49.596;6.142;2023-03-17T18:57:12;97644.81;;;13.96;100.00
21638;BME280;10980;49.596;6.142;2023-03-17T19:00:33;97635.25;;;14.01;100.00
21638;BME280;10980;49.596;6.142;2023-03-17T19:03:55;97634.44;;;14.01;100.00
21638;BME280;10980;49.596;6.142;2023-03-17T19:07:18;97632.88;;;14.07;100.00
21638;BME280;10980;49.596;6.142;2023-03-17T19:10:42;97626.31;;;14.09;100.00
21638;BME280;10980;49.596;6.142;2023-03-17T19:14:07;97625.13;;;14.12;100.00
21638;BME280;10980;49.596;6.142;2023-03-17T19:17:29;97640.66;;;14.16;100.00
21638;BME280;10980;49.596;6.142;2023-03-17T19:20:54;97648.03;;;14.14;100.00
21638;BME280;10980;49.596;6.142;2023-03-17T19:24:17;97655.84;;;14.16;100.00
21638;BME280;10980;49.596;6.142;2023-03-17T19:27:39;97669.03;;;14.17;100.00